Terminal Aerodrome Forecast
Issued by NWS

Home | Current Version | Previous Version | Text Only | Print | Product List | Glossary Off
Versions: 1 2 3 4 5 6 7 8 9 10 11 12 13 14 15 16 17 18 19 20 21 22 23

000
FTUS43 KGRB 170739 AAA
TAFMTW
TAF AMD
KMTW 170739Z 1708/1806 13007KT 6SM BR VCSH SCT007 OVC025
      TEMPO 1708/1711 4SM -SHRA BR SCT004 BKN007
     FM171600 20011G18KT P6SM SCT015 OVC025 PROB30 1720/1724 3SM
      -TSRA BKN015CB=

USA.gov is the U.S. government's official web portal to all federal, state and local government web resources and services.